ダッカ の空港の天気 - METARとTAF

シャージャラル国際空港(ダッカ) ( VGHS / DAC ) - バングラデシュ ダッカ
飛行場実況気象(Metar)
観測時間06/23 07:30 BDT (06/23 01:30 UTC)
風向・風速南東 3m/s
視程3500m
天気現象煙霧
全天の4割程度の雲 雲底高度 370m
全天の8割程度の雲 雲底高度 3050m
気温28℃
湿度84%
気圧1002hPa
METARVGHS 230130Z 14005KT 3500 HZ SCT012 BKN100 28/25 Q1002 NOSIG
過去の天気等 Google飛行場航空写真 Wunderground天気予報

過去48時間のMETAR

飛行場予報(TAF)
発表時間: 6/23 05:00 BDT (6/22 23:00 UTC)
予報対象時間: 23日6時 BDT ~ 24日12時 BDT
風向・風速南 4m/s
視程4,000m
天気現象煙霧
全天の4割程度の雲 雲底高度 370m
全天の8割程度の雲 雲底高度 3,050m
23日10時 BDT ~ 23日18時 BDT に一時的に
風向・風速西 13m/s
視程2,000m
23日18時 BDT ~ 23日20時 BDT に徐々に
風向・風速南 4m/s
視程4,000m
天気現象煙霧
全天の4割程度の雲 雲底高度 460m
全天の4割程度の雲 雲底高度 3,050m
23日22時 BDT ~ 24日10時 BDT に一時的に
風向・風速西 13m/s
視程1,500m
TAF VGHS 222300Z 2300/2406 17008KT 4000 HZ SCT012 BKN100
TEMPO 2304/2312 26025KT 2000 RA/TSRA BKN007 FEW025CB OVC080
BECMG 2312/2314 17007KT 4000 HZ SCT015 SCT100
TEMPO 2316/2404 27025KT 1500 RA/TSRA BKN007 FEW025CB OVC080